createdAt,value
2023-01-06T00:12:48.834Z,2.05
2023-01-06T00:27:50.905Z,1.83
2023-01-06T00:42:52.911Z,1.60
2023-01-06T00:57:54.863Z,1.77
2023-01-06T01:12:56.820Z,1.75
2023-01-06T01:27:58.922Z,1.63
2023-01-06T01:43:00.843Z,2.25
2023-01-06T01:58:12.051Z,2.47
2023-01-06T02:13:13.997Z,2.35
2023-01-06T02:28:30.700Z,6.30
2023-01-06T02:44:00.447Z,4.35
2023-01-06T02:59:11.369Z,4.00
2023-01-06T03:14:27.935Z,3.88
2023-01-06T03:29:30.066Z,3.90
2023-01-06T03:44:45.132Z,2.58
2023-01-06T03:59:52.784Z,3.95
2023-01-06T04:14:54.727Z,4.20
2023-01-06T04:29:56.944Z,4.03
2023-01-06T04:44:58.856Z,5.82
2023-01-06T05:00:00.795Z,4.20
2023-01-06T05:15:03.313Z,5.70
2023-01-06T05:30:05.934Z,5.13
2023-01-06T05:45:08.690Z,3.35
2023-01-06T06:00:11.403Z,4.57
2023-01-06T06:15:13.362Z,3.95
2023-01-06T06:30:17.137Z,3.63
2023-01-06T06:45:19.324Z,4.32
2023-01-06T07:00:21.238Z,4.53
2023-01-06T07:15:23.173Z,4.53
2023-01-06T07:30:26.646Z,4.57
2023-01-06T07:45:28.628Z,5.93
2023-01-06T08:00:30.584Z,4.55
2023-01-06T08:15:32.560Z,3.67
2023-01-06T08:30:40.043Z,3.63
2023-01-06T08:45:42.064Z,3.80
2023-01-06T09:00:44.190Z,6.57
2023-01-06T09:15:49.108Z,4.00
2023-01-06T09:30:51.490Z,4.78
2023-01-06T09:46:01.794Z,5.45
2023-01-06T10:01:10.207Z,4.68
2023-01-06T10:16:27.326Z,4.60
2023-01-06T10:31:35.553Z,4.47
2023-01-06T10:46:38.076Z,4.53
2023-01-06T11:18:28.337Z,4.70
2023-01-06T11:33:33.266Z,5.90
2023-01-06T11:48:41.885Z,5.85
2023-01-06T12:03:51.278Z,6.50
2023-01-06T12:18:53.863Z,7.50
2023-01-06T12:34:18.105Z,9.05
2023-01-06T12:49:29.511Z,8.52
2023-01-06T13:04:57.661Z,9.38
2023-01-06T13:20:03.393Z,10.13
2023-01-06T13:35:15.142Z,11.20
2023-01-06T13:50:20.769Z,11.63
2023-01-06T14:05:22.897Z,12.35
2023-01-06T14:20:36.688Z,13.30
2023-01-06T14:35:46.038Z,13.70
2023-01-06T14:50:52.180Z,13.48
2023-01-06T15:06:17.413Z,15.55
2023-01-06T15:21:20.443Z,13.20
2023-01-06T15:36:24.108Z,16.50
2023-01-06T15:51:27.263Z,17.27
2023-01-06T16:06:34.503Z,16.15
2023-01-06T16:21:36.507Z,14.50
2023-01-06T16:36:38.457Z,15.30
2023-01-06T16:51:44.802Z,17.33
2023-01-06T17:06:47.047Z,19.10
2023-01-06T17:21:52.471Z,13.13
2023-01-06T17:36:56.409Z,7.10
2023-01-06T17:51:59.030Z,7.60
2023-01-06T18:07:01.148Z,6.30
2023-01-06T18:22:12.865Z,5.68
2023-01-06T18:37:15.227Z,7.75
2023-01-06T18:52:41.073Z,6.25
2023-01-06T19:07:44.111Z,5.45
2023-01-06T19:22:46.444Z,4.10
2023-01-06T19:37:49.610Z,3.80
2023-01-06T19:52:57.969Z,3.80
2023-01-06T20:08:00.039Z,6.03
2023-01-06T20:23:02.112Z,5.75
2023-01-06T20:38:04.393Z,4.90
2023-01-06T20:53:06.419Z,5.00
2023-01-06T21:08:08.457Z,4.78
2023-01-06T21:23:10.788Z,4.90
2023-01-06T21:38:12.977Z,4.88
2023-01-06T21:53:15.323Z,5.60
2023-01-06T22:08:17.880Z,5.70
2023-01-06T22:23:22.288Z,4.55
2023-01-06T22:38:24.975Z,5.45
2023-01-06T22:53:28.533Z,5.18
2023-01-06T23:08:32.766Z,5.70
2023-01-06T23:23:36.039Z,8.23
2023-01-06T23:38:38.516Z,4.80
2023-01-06T23:53:40.949Z,5.80
